createdAt,value
2018-06-22T00:01:01.883Z,1.50
2018-06-22T00:03:30.026Z,1.47
2018-06-22T00:05:58.216Z,1.50
2018-06-22T00:08:26.410Z,1.70
2018-06-22T00:10:54.537Z,1.40
2018-06-22T00:13:22.702Z,1.53
2018-06-22T00:15:50.864Z,1.53
2018-06-22T00:18:18.781Z,1.63
2018-06-22T00:20:46.981Z,1.70
2018-06-22T00:23:15.122Z,1.47
2018-06-22T00:25:43.272Z,1.40
2018-06-22T00:28:11.433Z,2.00
2018-06-22T00:30:39.580Z,1.40
2018-06-22T00:33:07.822Z,1.20
2018-06-22T00:35:35.772Z,1.20
2018-06-22T00:38:03.959Z,1.57
2018-06-22T00:40:32.249Z,1.57
2018-06-22T00:43:00.393Z,1.17
2018-06-22T00:45:28.534Z,1.47
2018-06-22T00:47:56.694Z,1.83
2018-06-22T00:50:24.837Z,1.43
2018-06-22T00:52:53.001Z,2.00
2018-06-22T00:55:21.150Z,1.27
2018-06-22T00:57:49.305Z,1.73
2018-06-22T01:00:17.459Z,1.20
2018-06-22T01:02:45.594Z,1.70
2018-06-22T01:05:13.738Z,1.93
2018-06-22T01:07:41.890Z,1.37
2018-06-22T01:10:10.052Z,1.50
2018-06-22T01:12:38.195Z,1.47
2018-06-22T01:15:06.338Z,1.57
2018-06-22T01:17:34.509Z,2.33
2018-06-22T01:20:02.759Z,2.00
2018-06-22T01:22:30.942Z,1.50
2018-06-22T01:24:59.092Z,1.87
2018-06-22T01:27:27.220Z,1.80
2018-06-22T01:29:55.378Z,1.60
2018-06-22T01:32:23.519Z,1.90
2018-06-22T01:34:51.678Z,1.73
2018-06-22T01:37:19.826Z,2.13
2018-06-22T01:39:47.980Z,1.80
2018-06-22T01:42:16.131Z,1.60
2018-06-22T01:44:44.290Z,1.90
2018-06-22T01:47:12.439Z,1.83
2018-06-22T01:49:40.663Z,2.00
2018-06-22T01:52:08.806Z,1.80
2018-06-22T01:54:37.009Z,1.80
2018-06-22T01:57:05.395Z,1.63
2018-06-22T01:59:33.534Z,1.63
2018-06-22T02:02:01.700Z,2.20
2018-06-22T02:04:29.843Z,2.10
2018-06-22T02:06:57.970Z,1.53
2018-06-22T02:09:25.929Z,1.50
2018-06-22T02:11:54.089Z,1.43
2018-06-22T02:14:22.226Z,1.63
2018-06-22T02:16:50.382Z,1.63
2018-06-22T02:19:18.530Z,1.70
2018-06-22T02:21:46.660Z,1.87
2018-06-22T02:24:14.792Z,1.70
2018-06-22T02:26:42.928Z,1.40
2018-06-22T02:29:11.084Z,1.70
2018-06-22T02:31:39.211Z,1.50
2018-06-22T02:34:07.354Z,1.50
2018-06-22T02:36:35.479Z,1.67
2018-06-22T02:39:05.793Z,1.80
2018-06-22T02:41:33.913Z,1.63
2018-06-22T02:44:02.042Z,1.30
2018-06-22T02:46:30.215Z,1.90
2018-06-22T02:48:58.367Z,1.80
2018-06-22T02:51:26.502Z,1.70
2018-06-22T02:53:54.639Z,1.70
2018-06-22T02:56:22.763Z,1.57
2018-06-22T02:58:50.914Z,2.63
2018-06-22T03:01:19.051Z,2.30
2018-06-22T03:03:47.339Z,2.20
2018-06-22T03:06:15.514Z,1.70
2018-06-22T03:08:43.646Z,1.40
2018-06-22T03:11:11.786Z,1.60
2018-06-22T03:13:39.961Z,1.67
2018-06-22T03:16:09.773Z,1.50
2018-06-22T03:18:37.940Z,2.20
2018-06-22T03:21:06.098Z,1.83
2018-06-22T03:23:34.237Z,1.70
2018-06-22T03:26:02.403Z,2.40
2018-06-22T03:28:30.553Z,2.20
2018-06-22T03:30:58.714Z,1.80
2018-06-22T03:33:26.874Z,1.47
2018-06-22T03:35:55.047Z,1.93
2018-06-22T03:38:23.194Z,1.67
2018-06-22T03:40:51.349Z,1.80
2018-06-22T03:43:19.497Z,2.17
2018-06-22T03:45:47.681Z,1.47
2018-06-22T03:48:15.821Z,1.30
2018-06-22T03:50:44.049Z,1.70
2018-06-22T03:53:12.194Z,1.40
2018-06-22T03:55:40.349Z,1.70
2018-06-22T03:58:08.574Z,1.77
2018-06-22T04:00:36.727Z,1.60
2018-06-22T04:03:04.917Z,1.73
2018-06-22T04:05:33.068Z,1.60
2018-06-22T04:08:01.217Z,1.87
2018-06-22T04:10:29.384Z,2.00
2018-06-22T04:12:57.546Z,1.53
2018-06-22T04:15:26.394Z,2.83
2018-06-22T04:17:55.345Z,1.97
2018-06-22T04:20:24.769Z,1.80
2018-06-22T04:22:53.459Z,1.77
2018-06-22T04:25:22.682Z,1.70
2018-06-22T04:27:51.457Z,1.77
2018-06-22T04:30:19.729Z,2.27
2018-06-22T04:32:48.714Z,1.80
2018-06-22T04:35:17.001Z,1.50
2018-06-22T04:37:45.197Z,1.57
2018-06-22T04:40:13.349Z,1.50
2018-06-22T04:42:41.514Z,1.40
2018-06-22T04:45:09.669Z,1.50
2018-06-22T04:47:37.824Z,1.43
2018-06-22T04:50:05.953Z,1.70
2018-06-22T04:52:34.098Z,1.77
2018-06-22T04:55:02.305Z,1.80
2018-06-22T04:57:30.484Z,1.43
2018-06-22T04:59:58.642Z,1.90
2018-06-22T05:02:26.801Z,2.23
2018-06-22T05:04:54.966Z,1.43
2018-06-22T05:07:23.146Z,1.83
2018-06-22T05:09:51.362Z,2.30
2018-06-22T05:12:19.469Z,1.80
2018-06-22T05:14:47.450Z,1.50
2018-06-22T05:17:15.590Z,1.60
2018-06-22T05:19:43.722Z,1.60
2018-06-22T05:22:11.883Z,1.60
2018-06-22T05:24:40.031Z,1.60
2018-06-22T05:27:08.218Z,2.10
2018-06-22T05:29:36.358Z,1.60
2018-06-22T05:32:04.514Z,1.40
2018-06-22T05:34:32.651Z,1.60
2018-06-22T05:37:00.818Z,2.23
2018-06-22T05:39:28.946Z,1.80
2018-06-22T05:41:57.098Z,1.80
2018-06-22T05:44:25.285Z,2.03
2018-06-22T05:46:53.254Z,1.80
2018-06-22T05:49:21.421Z,2.00
2018-06-22T05:51:49.590Z,1.67
2018-06-22T05:54:17.746Z,1.90
2018-06-22T05:56:46.006Z,2.33
2018-06-22T05:59:14.133Z,2.33
2018-06-22T06:01:42.287Z,2.27
2018-06-22T06:04:10.439Z,2.50
2018-06-22T06:06:38.585Z,2.13
2018-06-22T06:09:07.855Z,2.13
2018-06-22T06:11:36.018Z,2.87
2018-06-22T06:14:04.201Z,2.30
2018-06-22T06:16:32.373Z,2.40
2018-06-22T06:19:00.526Z,2.63
2018-06-22T06:21:28.686Z,2.80
2018-06-22T06:23:56.829Z,3.13
2018-06-22T06:26:25.142Z,2.80
2018-06-22T06:28:53.325Z,2.80
2018-06-22T06:31:21.574Z,2.90
2018-06-22T06:33:49.718Z,2.57
2018-06-22T06:36:17.901Z,3.20
2018-06-22T06:38:46.057Z,3.27
2018-06-22T06:41:14.272Z,2.83
2018-06-22T06:43:42.647Z,3.80
2018-06-22T06:46:11.069Z,2.70
2018-06-22T06:48:39.221Z,2.90
2018-06-22T06:51:07.217Z,2.77
2018-06-22T06:53:35.369Z,2.63
2018-06-22T06:56:03.522Z,2.53
2018-06-22T06:58:31.673Z,2.70
2018-06-22T07:00:59.826Z,2.73
2018-06-22T07:03:27.965Z,3.07
2018-06-22T07:05:56.123Z,2.57
2018-06-22T07:08:24.297Z,2.40
2018-06-22T07:10:52.461Z,2.70
2018-06-22T07:13:20.643Z,2.63
2018-06-22T07:15:48.777Z,3.20
2018-06-22T07:18:16.926Z,2.73
2018-06-22T07:20:45.066Z,3.20
2018-06-22T07:23:13.227Z,3.13
2018-06-22T07:25:41.405Z,2.77
2018-06-22T07:28:09.608Z,3.03
2018-06-22T07:30:37.800Z,3.70
2018-06-22T07:33:05.938Z,2.73
2018-06-22T07:35:34.081Z,2.60
2018-06-22T07:38:02.253Z,2.70
2018-06-22T07:40:30.392Z,2.70
2018-06-22T07:42:58.542Z,2.73
2018-06-22T07:45:26.685Z,2.90
2018-06-22T07:47:54.854Z,3.40
2018-06-22T07:50:23.024Z,3.70
2018-06-22T07:52:51.225Z,3.30
2018-06-22T07:55:19.377Z,2.80
2018-06-22T07:57:47.553Z,2.87
2018-06-22T08:00:15.690Z,2.97
2018-06-22T08:02:43.845Z,2.93
2018-06-22T08:05:11.999Z,2.73
2018-06-22T08:07:40.164Z,3.00
2018-06-22T08:10:08.380Z,3.43
2018-06-22T08:12:36.550Z,3.10
2018-06-22T08:15:04.694Z,2.70
2018-06-22T08:17:32.872Z,3.37
2018-06-22T08:20:01.011Z,3.50
2018-06-22T08:22:29.169Z,2.80
2018-06-22T08:24:57.345Z,2.90
2018-06-22T08:27:25.298Z,2.73
2018-06-22T08:29:53.504Z,2.83
2018-06-22T08:32:21.621Z,2.80
2018-06-22T08:34:49.797Z,3.07
2018-06-22T08:37:17.922Z,3.37
2018-06-22T08:39:45.860Z,3.10
2018-06-22T08:42:14.044Z,2.73
2018-06-22T08:44:42.163Z,2.97
2018-06-22T08:47:10.318Z,2.90
2018-06-22T08:49:38.483Z,3.13
2018-06-22T08:52:06.629Z,2.50
2018-06-22T08:54:35.050Z,2.07
2018-06-22T08:57:03.206Z,2.23
2018-06-22T08:59:31.344Z,2.40
2018-06-22T09:01:59.502Z,2.87
2018-06-22T09:04:27.666Z,1.80
2018-06-22T09:06:55.842Z,2.30
2018-06-22T09:09:24.158Z,1.70
2018-06-22T09:11:52.471Z,3.13
2018-06-22T09:14:20.633Z,2.40
2018-06-22T09:16:48.814Z,2.10
2018-06-22T09:19:17.059Z,1.70
2018-06-22T09:21:45.223Z,2.13
2018-06-22T09:24:13.180Z,1.70
2018-06-22T09:26:41.321Z,1.80
2018-06-22T09:29:09.486Z,2.10
2018-06-22T09:31:37.629Z,1.80
2018-06-22T09:34:05.853Z,2.03
2018-06-22T09:36:33.994Z,2.13
2018-06-22T09:39:02.146Z,3.03
2018-06-22T09:41:30.290Z,2.37
2018-06-22T09:43:58.446Z,2.20
2018-06-22T09:46:26.578Z,1.87
2018-06-22T09:48:54.769Z,2.10
2018-06-22T09:51:22.730Z,2.27
2018-06-22T09:53:50.878Z,2.20
2018-06-22T09:56:19.014Z,2.23
2018-06-22T09:58:47.174Z,1.70
2018-06-22T10:01:15.333Z,1.60
2018-06-22T10:03:43.497Z,1.90
2018-06-22T10:06:11.635Z,2.00
2018-06-22T10:08:39.790Z,2.23
2018-06-22T10:11:07.939Z,1.70
2018-06-22T10:13:36.164Z,1.43
2018-06-22T10:16:04.257Z,1.30
2018-06-22T10:18:32.423Z,1.00
2018-06-22T10:21:00.634Z,1.03
2018-06-22T10:23:28.794Z,1.00
2018-06-22T10:25:56.969Z,1.00
2018-06-22T10:28:25.230Z,1.30
2018-06-22T10:30:53.378Z,1.03
2018-06-22T10:33:21.538Z,1.00
2018-06-22T10:35:49.702Z,1.30
2018-06-22T10:38:17.872Z,1.00
2018-06-22T10:40:46.030Z,1.30
2018-06-22T10:43:14.214Z,1.70
2018-06-22T10:45:42.396Z,1.40
2018-06-22T10:48:10.569Z,1.70
2018-06-22T10:50:38.744Z,1.57
2018-06-22T10:53:06.923Z,1.43
2018-06-22T10:55:35.069Z,1.70
2018-06-22T10:58:03.233Z,1.47
2018-06-22T11:00:31.529Z,1.53
2018-06-22T11:02:59.679Z,1.33
2018-06-22T11:05:27.838Z,1.30
2018-06-22T11:07:55.990Z,2.00
2018-06-22T11:10:24.148Z,2.37
2018-06-22T11:12:52.322Z,1.83
2018-06-22T11:15:20.462Z,1.93
2018-06-22T11:17:48.593Z,2.37
2018-06-22T11:20:16.749Z,1.80
2018-06-22T11:22:44.926Z,1.53
2018-06-22T11:25:13.058Z,1.43
2018-06-22T11:27:41.191Z,1.60
2018-06-22T11:30:09.337Z,1.50
2018-06-22T11:32:37.474Z,1.87
2018-06-22T11:35:05.685Z,1.50
2018-06-22T11:37:33.822Z,1.30
2018-06-22T11:40:01.982Z,1.30
2018-06-22T11:42:30.134Z,1.27
2018-06-22T11:44:58.329Z,1.40
2018-06-22T11:47:26.529Z,1.20
2018-06-22T11:49:54.697Z,1.20
2018-06-22T11:52:22.843Z,1.47
2018-06-22T11:54:50.983Z,1.80
2018-06-22T11:57:19.147Z,2.40
2018-06-22T11:59:47.297Z,1.47
2018-06-22T12:02:15.446Z,1.27
2018-06-22T12:04:43.376Z,1.63
2018-06-22T12:07:11.557Z,2.20
2018-06-22T12:09:39.786Z,1.70
2018-06-22T12:12:07.929Z,2.00
2018-06-22T12:14:36.097Z,1.70
2018-06-22T12:17:04.353Z,1.70
2018-06-22T12:19:33.453Z,1.43
2018-06-22T12:22:01.593Z,1.60
2018-06-22T12:24:29.742Z,1.70
2018-06-22T12:26:57.886Z,1.80
2018-06-22T12:29:26.074Z,1.73
2018-06-22T12:31:54.690Z,1.57
2018-06-22T12:34:22.852Z,1.60
2018-06-22T12:36:50.998Z,1.40
2018-06-22T12:39:19.161Z,1.13
2018-06-22T12:41:47.294Z,1.50
2018-06-22T12:44:15.453Z,1.40
2018-06-22T12:46:43.614Z,1.60
2018-06-22T12:49:11.777Z,1.57
2018-06-22T12:51:39.921Z,1.50
2018-06-22T12:54:08.076Z,1.57
2018-06-22T12:56:36.303Z,2.00
2018-06-22T12:59:04.470Z,1.50
2018-06-22T13:01:32.629Z,1.70
2018-06-22T13:04:00.840Z,2.00
2018-06-22T13:06:28.933Z,1.77
2018-06-22T13:08:57.105Z,1.70
2018-06-22T13:11:25.370Z,2.53
2018-06-22T13:13:53.698Z,2.00
2018-06-22T13:16:21.855Z,2.00
2018-06-22T13:18:50.017Z,2.17
2018-06-22T13:21:18.169Z,2.23
2018-06-22T13:23:46.312Z,1.97
2018-06-22T13:26:14.509Z,1.67
2018-06-22T13:28:42.718Z,2.23
2018-06-22T13:31:10.882Z,2.23
2018-06-22T13:33:39.034Z,1.90
2018-06-22T13:36:07.186Z,2.50
2018-06-22T13:38:35.322Z,1.80
2018-06-22T13:41:03.470Z,1.80
2018-06-22T13:43:31.637Z,1.57
2018-06-22T13:45:59.777Z,1.10
2018-06-22T13:48:27.912Z,1.40
2018-06-22T13:50:56.082Z,1.47
2018-06-22T13:53:24.017Z,1.40
2018-06-22T13:55:52.150Z,1.63
2018-06-22T13:58:20.315Z,1.13
2018-06-22T14:00:48.474Z,1.87
2018-06-22T14:03:18.689Z,1.60
2018-06-22T14:05:52.261Z,1.30
2018-06-22T14:08:20.397Z,1.40
2018-06-22T14:10:48.564Z,1.03
2018-06-22T14:13:16.457Z,1.30
2018-06-22T14:15:44.601Z,1.00
2018-06-22T14:18:12.765Z,0.90
2018-06-22T14:20:40.924Z,1.33
2018-06-22T14:23:09.066Z,0.90
2018-06-22T14:25:37.238Z,1.63
2018-06-22T14:28:05.386Z,0.90
2018-06-22T14:30:33.537Z,1.03
2018-06-22T14:33:01.694Z,1.20
2018-06-22T14:35:29.936Z,1.37
2018-06-22T14:37:58.090Z,1.00
2018-06-22T14:40:26.253Z,1.30
2018-06-22T14:42:54.397Z,0.97
2018-06-22T14:45:22.598Z,1.27
2018-06-22T14:47:51.018Z,1.10
2018-06-22T14:50:19.182Z,1.07
2018-06-22T14:52:48.076Z,0.80
2018-06-22T14:55:21.729Z,1.03
2018-06-22T14:57:55.326Z,0.77
2018-06-22T15:00:28.853Z,0.90
2018-06-22T15:03:02.554Z,1.00
2018-06-22T15:05:42.915Z,1.47
2018-06-22T15:08:14.181Z,1.10
2018-06-22T15:10:42.392Z,1.30
2018-06-22T15:13:10.554Z,0.97
2018-06-22T15:15:38.698Z,1.30
2018-06-22T15:18:06.846Z,1.20
2018-06-22T15:20:35.031Z,1.30
2018-06-22T15:23:03.170Z,1.50
2018-06-22T15:25:31.323Z,1.10
2018-06-22T15:27:59.474Z,1.43
2018-06-22T15:30:27.641Z,1.10
2018-06-22T15:32:55.822Z,1.20
2018-06-22T15:35:29.417Z,1.40
2018-06-22T15:38:03.070Z,1.10
2018-06-22T15:40:36.425Z,1.87
2018-06-22T15:43:10.142Z,2.40
2018-06-22T15:45:43.716Z,1.37
2018-06-22T15:48:17.110Z,1.67
2018-06-22T15:50:50.815Z,1.90
2018-06-22T15:53:24.370Z,1.30
2018-06-22T15:55:56.626Z,1.60
2018-06-22T15:58:24.810Z,1.23
2018-06-22T16:00:52.982Z,1.20
2018-06-22T16:03:26.760Z,1.67
2018-06-22T16:05:54.926Z,1.73
2018-06-22T16:08:23.081Z,1.00
2018-06-22T16:10:51.229Z,1.07
2018-06-22T16:13:20.300Z,1.33
2018-06-22T16:15:53.865Z,1.00
2018-06-22T16:18:27.317Z,1.20
2018-06-22T16:21:00.876Z,1.20
2018-06-22T16:23:34.445Z,1.10
2018-06-22T16:26:08.036Z,1.47
2018-06-22T16:28:36.193Z,1.40
2018-06-22T16:31:04.357Z,1.47
2018-06-22T16:33:32.582Z,1.90
2018-06-22T16:36:00.734Z,1.87
2018-06-22T16:38:28.877Z,1.50
2018-06-22T16:40:57.148Z,2.10
2018-06-22T16:43:25.313Z,2.00
2018-06-22T16:45:53.454Z,1.57
2018-06-22T16:48:21.615Z,2.10
2018-06-22T16:50:49.836Z,2.00
2018-06-22T16:53:18.007Z,1.47
2018-06-22T16:55:46.149Z,1.60
2018-06-22T16:58:19.818Z,1.37
2018-06-22T17:00:47.958Z,1.50
2018-06-22T17:03:16.118Z,1.20
2018-06-22T17:05:44.277Z,1.13
2018-06-22T17:09:15.505Z,1.20
2018-06-22T17:11:49.131Z,1.20
2018-06-22T17:14:22.658Z,1.50
2018-06-22T17:16:56.605Z,1.30
2018-06-22T17:19:24.845Z,1.50
2018-06-22T17:21:52.999Z,1.50
2018-06-22T17:24:20.987Z,1.37
2018-06-22T17:26:49.090Z,1.40
2018-06-22T17:29:17.237Z,1.57
2018-06-22T17:31:45.189Z,1.80
2018-06-22T17:34:13.341Z,1.50
2018-06-22T17:36:41.478Z,1.50
2018-06-22T17:39:11.197Z,1.60
2018-06-22T17:41:39.337Z,1.30
2018-06-22T17:44:07.809Z,1.50
2018-06-22T17:46:36.388Z,1.57
2018-06-22T17:49:04.614Z,1.40
2018-06-22T17:51:32.914Z,1.80
2018-06-22T17:54:01.006Z,1.73
2018-06-22T17:56:31.884Z,1.60
2018-06-22T17:59:05.634Z,1.60
2018-06-22T18:01:39.094Z,1.50
2018-06-22T18:04:12.552Z,1.70
2018-06-22T18:06:46.227Z,1.30
2018-06-22T18:09:19.602Z,1.53
2018-06-22T18:11:53.033Z,1.83
2018-06-22T18:14:21.191Z,1.60
2018-06-22T18:16:49.657Z,1.70
2018-06-22T18:19:17.926Z,1.70
2018-06-22T18:21:46.143Z,1.80
2018-06-22T18:24:14.574Z,1.50
2018-06-22T18:26:42.708Z,1.90
2018-06-22T18:29:10.854Z,2.13
2018-06-22T18:31:38.986Z,1.50
2018-06-22T18:34:07.136Z,1.40
2018-06-22T18:36:35.275Z,1.53
2018-06-22T18:39:06.077Z,1.50
2018-06-22T18:41:34.278Z,1.60
2018-06-22T18:44:02.455Z,2.70
2018-06-22T18:46:30.585Z,1.90
2018-06-22T18:48:58.729Z,1.90
2018-06-22T18:51:27.206Z,1.97
2018-06-22T18:54:00.798Z,2.03
2018-06-22T18:56:34.436Z,1.73
2018-06-22T18:59:07.817Z,1.90
2018-06-22T19:01:41.371Z,2.10
2018-06-22T19:04:09.585Z,1.80
2018-06-22T19:06:37.747Z,2.00
2018-06-22T19:09:07.553Z,2.10
2018-06-22T19:11:35.864Z,2.40
2018-06-22T19:14:04.070Z,1.83
2018-06-22T19:16:32.239Z,1.67
2018-06-22T19:19:00.398Z,2.30
2018-06-22T19:21:28.590Z,1.77
2018-06-22T19:23:56.737Z,2.03
2018-06-22T19:26:24.881Z,2.10
2018-06-22T19:28:53.045Z,1.80
2018-06-22T19:31:21.379Z,2.03
2018-06-22T19:33:49.578Z,1.93
2018-06-22T19:36:17.746Z,2.00
2018-06-22T19:38:45.901Z,1.90
2018-06-22T19:41:14.073Z,1.80
2018-06-22T19:43:47.837Z,1.80
2018-06-22T19:46:21.541Z,2.93
2018-06-22T19:48:55.255Z,2.53
2018-06-22T19:51:28.845Z,2.00
2018-06-22T19:54:02.407Z,2.27
2018-06-22T19:56:30.687Z,2.20
2018-06-22T19:58:58.869Z,1.80
2018-06-22T20:01:27.042Z,2.23
2018-06-22T20:03:55.640Z,1.70
2018-06-22T20:06:24.041Z,2.23
2018-06-22T20:08:52.202Z,2.23
2018-06-22T20:11:20.154Z,2.23
2018-06-22T20:13:48.350Z,2.80
2018-06-22T20:16:16.621Z,2.63
2018-06-22T20:18:44.725Z,2.33
2018-06-22T20:21:12.897Z,2.40
2018-06-22T20:23:41.088Z,2.30
2018-06-22T20:26:09.322Z,2.27
2018-06-22T20:28:37.728Z,2.03
2018-06-22T20:34:01.491Z,2.30
2018-06-22T20:36:35.122Z,2.73
2018-06-22T20:39:08.637Z,2.37
2018-06-22T20:41:42.317Z,2.23
2018-06-22T20:44:15.902Z,2.47
2018-06-22T20:46:49.478Z,2.20
2018-06-22T20:49:23.187Z,2.13
2018-06-22T20:51:51.414Z,2.47
2018-06-22T20:54:19.554Z,2.10
2018-06-22T20:56:47.701Z,2.47
2018-06-22T20:59:15.878Z,3.00
2018-06-22T21:01:44.090Z,2.90
2018-06-22T21:04:12.220Z,2.77
2018-06-22T21:06:40.343Z,2.83
2018-06-22T21:09:09.421Z,2.47
2018-06-22T21:11:37.662Z,2.60
2018-06-22T21:14:05.753Z,1.90
2018-06-22T21:16:34.170Z,2.50
2018-06-22T21:19:02.285Z,2.60
2018-06-22T21:21:35.983Z,2.73
2018-06-22T21:24:04.110Z,2.80
2018-06-22T21:26:32.254Z,2.67
2018-06-22T21:29:05.822Z,3.00
2018-06-22T21:31:39.521Z,2.97
2018-06-22T21:34:13.025Z,2.63
2018-06-22T21:36:46.663Z,2.10
2018-06-22T21:39:14.779Z,2.73
2018-06-22T21:41:42.898Z,3.00
2018-06-22T21:44:11.020Z,2.20
2018-06-22T21:46:39.409Z,2.20
2018-06-22T21:49:07.482Z,2.60
2018-06-22T21:51:35.604Z,1.93
2018-06-22T21:54:03.722Z,2.10
2018-06-22T21:56:31.834Z,2.40
2018-06-22T21:58:59.929Z,2.40
2018-06-22T22:01:28.049Z,2.23
2018-06-22T22:03:56.195Z,2.10
2018-06-22T22:06:24.319Z,2.20
2018-06-22T22:08:52.442Z,2.20
2018-06-22T22:11:20.575Z,2.47
2018-06-22T22:13:49.762Z,2.20
2018-06-22T22:16:17.895Z,2.70
2018-06-22T22:18:45.994Z,2.03
2018-06-22T22:21:14.109Z,2.70
2018-06-22T22:23:42.258Z,2.47
2018-06-22T22:26:10.470Z,2.20
2018-06-22T22:28:38.584Z,2.50
2018-06-22T22:31:06.739Z,2.50
2018-06-22T22:33:35.013Z,2.63
2018-06-22T22:36:03.133Z,2.73
2018-06-22T22:38:31.257Z,2.90
2018-06-22T22:40:59.425Z,2.30
2018-06-22T22:43:27.540Z,2.23
2018-06-22T22:45:55.646Z,2.13
2018-06-22T22:48:23.903Z,2.47
2018-06-22T22:50:52.010Z,2.70
2018-06-22T22:53:20.122Z,2.50
2018-06-22T22:55:48.242Z,2.20
2018-06-22T22:58:16.354Z,2.30
2018-06-22T23:00:44.478Z,2.53
2018-06-22T23:03:12.635Z,3.00
2018-06-22T23:05:40.839Z,2.77
2018-06-22T23:08:08.942Z,2.67
2018-06-22T23:10:37.075Z,2.57
2018-06-22T23:13:05.373Z,2.47
2018-06-22T23:15:33.523Z,2.50
2018-06-22T23:18:01.625Z,2.10
2018-06-22T23:20:29.726Z,2.47
2018-06-22T23:23:09.370Z,2.70
2018-06-22T23:25:37.482Z,2.33
2018-06-22T23:28:05.591Z,2.60
2018-06-22T23:30:33.769Z,2.50
2018-06-22T23:33:01.875Z,2.50
2018-06-22T23:35:29.989Z,2.27
2018-06-22T23:37:58.106Z,2.70
2018-06-22T23:40:26.299Z,2.80
2018-06-22T23:42:54.441Z,3.03
2018-06-22T23:45:22.509Z,2.30
2018-06-22T23:47:50.762Z,2.50
2018-06-22T23:50:18.886Z,2.83
2018-06-22T23:52:47.234Z,2.80
2018-06-22T23:55:15.321Z,2.97
2018-06-22T23:57:43.441Z,2.03
